Time;durP1;ratioP1;P1;durP2;ratioP2;P2;SDS_P1;SDS_P2;PMS_P1;PMS_P2;Temp;Humidity;BMP_temperature;BMP_pressure;BME280_temperature;BME280_humidity;BME280_pressure;Samples;Min_cycle;Max_cycle;Signal;HPM_P1;HPM_P2
2022/04/05 00:00:43;;;;;;;;;;;;;;;21.48;38.37;100397.69;5056472;28;20270;-84
2022/04/05 00:03:08;;;;;;;;;;;;;;;21.47;38.22;100393.34;5056778;28;19971;-84
2022/04/05 00:05:34;;;;;;;;;;;;;;;21.47;38.40;100396.09;5056294;28;19920;-85
2022/04/05 00:07:59;;;;;;;;;;;;;;;21.46;38.29;100402.69;5056559;28;20273;-84
2022/04/05 00:10:24;;;;;;;;;;;;;;;21.46;38.20;100397.19;5056540;28;19936;-84
2022/04/05 00:12:49;;;;;;;;;;;;;;;21.46;38.27;100382.66;5056521;28;20317;-84
2022/04/05 00:15:15;;;;;;;;;;;;;;;21.44;38.19;100388.47;5039322;28;20304;-84
2022/04/05 00:17:40;;;;;;;;;;;;;;;21.44;38.33;100402.22;5056605;28;19928;-84
2022/04/05 00:20:07;;;;;;;;;;;;;;;21.44;38.28;100395.91;5056345;28;19917;-84
2022/04/05 00:22:32;;;;;;;;;;;;;;;21.43;38.46;100395.09;5056707;28;19989;-84
2022/04/05 00:24:57;;;;;;;;;;;;;;;21.42;38.26;100407.25;5071780;28;19921;-84
2022/04/05 00:27:22;;;;;;;;;;;;;;;21.42;38.36;100399.00;5055941;28;20371;-84
2022/04/05 00:29:48;;;;;;;;;;;;;;;21.41;38.18;100405.63;5038594;28;19960;-84
2022/04/05 00:32:13;;;;;;;;;;;;;;;21.41;38.44;100410.31;5056224;28;19975;-84
2022/04/05 00:34:39;;;;;;;;;;;;;;;21.41;38.25;100402.88;5056637;28;19967;-84
2022/04/05 00:37:04;;;;;;;;;;;;;;;21.40;38.21;100404.00;5056004;28;19917;-84
2022/04/05 00:39:29;;;;;;;;;;;;;;;21.39;38.53;100402.38;5056559;28;20007;-84
2022/04/05 00:41:56;;;;;;;;;;;;;;;21.39;38.29;100410.63;5055635;28;19928;-84
2022/04/05 00:44:22;;;;;;;;;;;;;;;21.37;38.35;100399.94;5034636;28;20000;-84
2022/04/05 00:46:47;;;;;;;;;;;;;;;21.37;38.35;100402.69;5034413;28;19956;-84
2022/04/05 00:49:15;;;;;;;;;;;;;;;21.36;38.37;100406.53;5037703;28;19916;-84
2022/04/05 00:51:41;;;;;;;;;;;;;;;21.36;38.39;100400.25;5055741;28;19917;-84
2022/04/05 00:54:07;;;;;;;;;;;;;;;21.36;38.48;100400.25;5071174;28;19921;-84
2022/04/05 00:56:34;;;;;;;;;;;;;;;21.36;38.50;100403.00;5055729;28;20000;-84
2022/04/05 00:59:00;;;;;;;;;;;;;;;21.35;38.46;100404.13;5054235;28;19917;-84
2022/04/05 01:01:27;;;;;;;;;;;;;;;21.34;38.51;100399.75;5071114;28;19921;-84
2022/04/05 01:03:53;;;;;;;;;;;;;;;21.34;38.53;100400.59;5037763;28;19928;-84
2022/04/05 01:06:19;;;;;;;;;;;;;;;21.32;38.41;100400.09;5055556;28;20349;-84
2022/04/05 01:08:46;;;;;;;;;;;;;;;21.32;38.48;100399.31;5055243;28;19917;-84
2022/04/05 01:11:11;;;;;;;;;;;;;;;21.31;38.50;100398.47;5070683;28;19963;-84
2022/04/05 01:13:37;;;;;;;;;;;;;;;21.32;38.47;100410.28;5056257;28;19925;-84
2022/04/05 01:16:02;;;;;;;;;;;;;;;21.31;38.45;100414.16;5071036;28;20395;-84
2022/04/05 01:18:28;;;;;;;;;;;;;;;21.30;38.54;100401.56;5037314;28;19921;-84
2022/04/05 01:20:53;;;;;;;;;;;;;;;21.29;38.60;100409.00;5055263;28;20027;-84
2022/04/05 01:23:22;;;;;;;;;;;;;;;21.30;38.35;100407.06;5070819;28;20372;-84
2022/04/05 01:25:47;;;;;;;;;;;;;;;21.29;38.52;100405.41;5055182;28;19921;-84
2022/04/05 01:28:12;;;;;;;;;;;;;;;21.29;38.59;100410.91;5054979;28;19951;-84
2022/04/05 01:30:38;;;;;;;;;;;;;;;21.28;38.36;100417.56;5070768;28;19925;-84
2022/04/05 01:33:03;;;;;;;;;;;;;;;21.27;38.57;100413.16;5036994;28;20011;-84
2022/04/05 01:35:28;;;;;;;;;;;;;;;21.28;38.58;100421.09;5070336;28;19920;-84
2022/04/05 01:37:53;;;;;;;;;;;;;;;21.26;38.57;100428.03;5054875;28;19927;-84
2022/04/05 01:40:19;;;;;;;;;;;;;;;21.25;38.62;100424.50;5054871;28;19999;-84
2022/04/05 01:42:44;;;;;;;;;;;;;;;21.25;38.66;100418.19;5054450;28;19917;-83
2022/04/05 01:45:09;;;;;;;;;;;;;;;21.25;38.48;100424.50;5037070;28;20262;-83
2022/04/05 01:47:37;;;;;;;;;;;;;;;21.24;38.45;100420.13;5054833;28;19971;-83
2022/04/05 01:50:02;;;;;;;;;;;;;;;21.24;38.50;100422.06;5069726;28;19931;-83
2022/04/05 01:52:27;;;;;;;;;;;;;;;21.24;38.42;100419.31;5054549;28;20008;-83
2022/04/05 01:54:53;;;;;;;;;;;;;;;21.23;38.64;100414.97;5070020;28;19924;-83
2022/04/05 01:57:18;;;;;;;;;;;;;;;21.24;38.50;100422.06;5037206;28;19939;-82
2022/04/05 01:59:44;;;;;;;;;;;;;;;21.23;38.39;100417.72;5054445;28;20304;-82
2022/04/05 02:02:10;;;;;;;;;;;;;;;21.22;38.52;100416.06;5054365;28;20340;-83
2022/04/05 02:04:36;;;;;;;;;;;;;;;21.22;38.57;100416.06;5054417;28;19917;-83
2022/04/05 02:07:07;;;;;;;;;;;;;;;21.21;38.66;100414.47;5052936;28;19927;-83
2022/04/05 02:09:32;;;;;;;;;;;;;;;21.22;38.49;100418.81;5054413;28;19921;-83
2022/04/05 02:11:58;;;;;;;;;;;;;;;21.20;38.69;100410.91;5054500;28;19930;-82
2022/04/05 02:14:24;;;;;;;;;;;;;;;21.19;38.73;100412.03;5054165;28;19927;-83
2022/04/05 02:16:49;;;;;;;;;;;;;;;21.19;38.39;100417.53;5054234;28;19917;-83
2022/04/05 02:19:15;;;;;;;;;;;;;;;21.18;38.67;100419.47;5054103;28;19974;-83
2022/04/05 02:21:40;;;;;;;;;;;;;;;21.18;38.65;100413.97;5070287;28;19928;-84
2022/04/05 02:24:05;;;;;;;;;;;;;;;21.16;38.51;100413.50;5069085;28;20364;-83
2022/04/05 02:26:30;;;;;;;;;;;;;;;21.16;38.70;100416.22;5054031;28;19947;-83
2022/04/05 02:28:56;;;;;;;;;;;;;;;21.16;38.46;100412.69;5054522;28;19971;-84
2022/04/05 02:31:21;;;;;;;;;;;;;;;21.16;38.54;100412.69;5053883;28;19928;-82
2022/04/05 02:33:46;;;;;;;;;;;;;;;21.15;38.59;100411.09;5053664;28;20292;-83
2022/04/05 02:36:12;;;;;;;;;;;;;;;21.14;38.67;100410.28;5069723;28;20387;-82
2022/04/05 02:38:37;;;;;;;;;;;;;;;21.14;38.62;100409.44;5053926;28;20011;-83
2022/04/05 02:41:05;;;;;;;;;;;;;;;21.14;38.68;100409.44;5053848;28;19963;-83
2022/04/05 02:43:30;;;;;;;;;;;;;;;21.13;38.68;100405.09;5069033;28;19924;-83
2022/04/05 02:45:56;;;;;;;;;;;;;;;21.13;38.50;100411.38;5036199;28;19917;-85
2022/04/05 02:48:22;;;;;;;;;;;;;;;21.12;38.74;100415.28;5053763;28;20392;-83
2022/04/05 02:50:48;;;;;;;;;;;;;;;21.13;38.66;100422.38;5054380;28;20042;-83
2022/04/05 02:53:13;;;;;;;;;;;;;;;21.11;38.48;100410.91;5069310;28;20345;-83
2022/04/05 02:55:38;;;;;;;;;;;;;;;21.12;38.55;100419.97;5053827;28;20020;-83
2022/04/05 02:58:03;;;;;;;;;;;;;;;21.11;38.68;100413.66;5069408;28;19991;-83
2022/04/05 03:00:29;;;;;;;;;;;;;;;21.10;38.69;100411.25;5053733;28;19924;-83
2022/04/05 03:02:54;;;;;;;;;;;;;;;21.10;38.60;100409.28;5054198;28;19921;-84
2022/04/05 03:05:22;;;;;;;;;;;;;;;21.10;38.39;100411.25;5069095;28;19925;-83
2022/04/05 03:07:47;;;;;;;;;;;;;;;21.09;38.72;100413.19;5053561;28;19917;-83
2022/04/05 03:10:12;;;;;;;;;;;;;;;21.09;38.68;100413.19;5069070;28;20399;-84
2022/04/05 03:12:38;;;;;;;;;;;;;;;21.09;38.69;100417.84;5053583;28;19967;-83
2022/04/05 03:15:04;;;;;;;;;;;;;;;21.08;38.71;100425.28;5053504;28;20312;-83
2022/04/05 03:17:29;;;;;;;;;;;;;;;21.09;38.78;100417.84;5053473;28;19920;-83
2022/04/05 03:19:55;;;;;;;;;;;;;;;21.06;38.69;100408.31;5053131;28;19917;-84
2022/04/05 03:22:20;;;;;;;;;;;;;;;21.07;38.63;100414.63;5057056;28;19939;-84
2022/04/05 03:24:46;;;;;;;;;;;;;;;21.06;38.53;100416.53;5057432;28;19932;-84
2022/04/05 03:27:11;;;;;;;;;;;;;;;21.07;38.74;100414.63;5057275;28;19924;-83
2022/04/05 03:29:36;;;;;;;;;;;;;;;21.05;38.64;100412.19;5056967;28;19916;-83
2022/04/05 03:32:02;;;;;;;;;;;;;;;21.05;38.63;100406.72;5057323;28;19920;-83
2022/04/05 03:34:27;;;;;;;;;;;;;;;21.05;38.75;100417.69;5057223;28;19940;-83
2022/04/05 03:36:53;;;;;;;;;;;;;;;21.04;38.57;100410.59;5057568;28;20012;-84
2022/04/05 03:39:18;;;;;;;;;;;;;;;21.04;38.59;100413.34;5057064;28;20284;-84
2022/04/05 03:41:44;;;;;;;;;;;;;;;21.04;38.59;100410.59;5057325;28;19916;-84
2022/04/05 03:44:10;;;;;;;;;;;;;;;21.03;38.64;100410.91;5055132;28;19931;-84
2022/04/05 03:46:36;;;;;;;;;;;;;;;21.03;38.58;100411.69;5056647;28;20011;-84
2022/04/05 03:49:01;;;;;;;;;;;;;;;21.02;38.75;100415.59;5038982;28;19917;-85
2022/04/05 03:51:26;;;;;;;;;;;;;;;21.03;38.81;100413.66;5056577;28;20011;-84
2022/04/05 03:53:52;;;;;;;;;;;;;;;21.02;38.87;100407.34;5055625;28;19983;-84
2022/04/05 03:56:19;;;;;;;;;;;;;;;21.02;38.80;100406.56;5056833;28;19928;-84
2022/04/05 03:58:44;;;;;;;;;;;;;;;21.02;38.60;100409.28;5057398;28;19939;-84
2022/04/05 04:01:09;;;;;;;;;;;;;;;21.01;38.66;100413.16;5055575;28;20357;-87
2022/04/05 04:03:34;;;;;;;;;;;;;;;21.01;38.78;100404.91;5056753;28;19971;-84
2022/04/05 04:06:00;;;;;;;;;;;;;;;20.99;38.83;100408.00;5038735;28;19946;-84
2022/04/05 04:08:26;;;;;;;;;;;;;;;20.99;38.79;100405.25;5056399;28;19928;-84
2022/04/05 04:10:51;;;;;;;;;;;;;;;20.99;38.82;100408.00;5056609;28;19939;-83
2022/04/05 04:13:17;;;;;;;;;;;;;;;20.98;38.61;100403.63;5056486;28;19924;-83
2022/04/05 04:15:43;;;;;;;;;;;;;;;20.98;38.64;100411.06;5056781;28;19921;-83
2022/04/05 04:18:08;;;;;;;;;;;;;;;20.97;38.76;100404.75;5038380;28;20427;-83
2022/04/05 04:20:33;;;;;;;;;;;;;;;20.98;38.80;100411.84;5056278;28;19923;-84
2022/04/05 04:22:58;;;;;;;;;;;;;;;20.98;38.69;100405.56;5071833;28;19920;-83
2022/04/05 04:25:24;;;;;;;;;;;;;;;20.97;38.64;100410.25;5056299;28;19921;-84
2022/04/05 04:27:49;;;;;;;;;;;;;;;20.96;38.61;100403.97;5071382;28;19921;-83
2022/04/05 04:30:14;;;;;;;;;;;;;;;20.95;38.91;100407.81;5071561;28;19920;-83
2022/04/05 04:32:40;;;;;;;;;;;;;;;20.96;38.84;100408.63;5071625;28;20345;-83
2022/04/05 04:35:07;;;;;;;;;;;;;;;20.95;38.82;100402.31;5056135;28;19928;-84
2022/04/05 04:37:32;;;;;;;;;;;;;;;20.95;38.68;100407.00;5056157;28;19952;-83
2022/04/05 04:39:58;;;;;;;;;;;;;;;20.95;39.00;100407.00;5071813;28;19998;-83
2022/04/05 04:42:23;;;;;;;;;;;;;;;20.94;38.89;100410.88;5055912;28;20284;-83
2022/04/05 04:44:49;;;;;;;;;;;;;;;20.94;38.96;100410.88;5055442;28;19932;-82
2022/04/05 04:47:14;;;;;;;;;;;;;;;20.93;38.70;100410.06;5038167;28;19925;-82
2022/04/05 04:49:39;;;;;;;;;;;;;;;20.93;38.64;100407.31;5055808;28;20415;-83
2022/04/05 04:52:05;;;;;;;;;;;;;;;20.92;38.92;100408.47;5056352;28;19943;-83
2022/04/05 04:54:30;;;;;;;;;;;;;;;20.92;38.97;100415.91;5071101;28;20012;-83
2022/04/05 04:56:55;;;;;;;;;;;;;;;20.92;39.07;100408.47;5055772;28;19963;-83
2022/04/05 04:59:21;;;;;;;;;;;;;;;20.91;39.02;100414.25;5037726;28;19971;-83
2022/04/05 05:01:46;;;;;;;;;;;;;;;20.89;38.91;100409.13;5055649;28;19979;-83
2022/04/05 05:04:11;;;;;;;;;;;;;;;20.91;38.96;100414.25;5055645;28;19921;-84
2022/04/05 05:06:36;;;;;;;;;;;;;;;20.90;38.85;100413.47;5055811;28;19921;-84
2022/04/05 05:09:02;;;;;;;;;;;;;;;20.89;39.03;100416.50;5037747;28;20395;-83
2022/04/05 05:11:27;;;;;;;;;;;;;;;20.89;39.04;100424.75;5037949;28;19975;-83
2022/04/05 05:13:54;;;;;;;;;;;;;;;20.89;38.99;100419.25;5038062;28;20416;-83
2022/04/05 05:16:19;;;;;;;;;;;;;;;20.89;39.05;100414.59;5055222;28;19925;-84
2022/04/05 05:18:45;;;;;;;;;;;;;;;20.88;38.88;100417.66;5055287;28;20012;-84
2022/04/05 05:21:10;;;;;;;;;;;;;;;20.87;38.68;100419.59;5055556;28;20067;-84
2022/04/05 05:23:35;;;;;;;;;;;;;;;20.87;38.86;100425.09;5055175;28;19986;-84
2022/04/05 05:26:00;;;;;;;;;;;;;;;20.87;38.67;100416.84;5055131;28;19927;-84
2022/04/05 05:28:26;;;;;;;;;;;;;;;20.86;38.62;100425.41;5037459;28;19928;-86
2022/04/05 05:30:51;;;;;;;;;;;;;;;20.88;38.81;100428.63;5055153;28;19917;-86
2022/04/05 05:33:16;;;;;;;;;;;;;;;20.87;38.93;100427.03;5037362;28;19920;-86
2022/04/05 05:35:42;;;;;;;;;;;;;;;20.86;38.73;100420.72;5055183;28;20266;-87
2022/04/05 05:38:08;;;;;;;;;;;;;;;20.87;38.80;100435.28;5055009;28;20357;-89
2022/04/05 05:40:33;;;;;;;;;;;;;;;20.87;38.78;100432.53;5053980;28;19975;-80
2022/04/05 05:43:01;;;;;;;;;;;;;;;20.88;38.79;100431.38;5054736;28;20007;-84
2022/04/05 05:45:27;;;;;;;;;;;;;;;20.89;38.94;100436.56;5054358;28;19924;-80
2022/04/05 05:47:52;;;;;;;;;;;;;;;20.88;38.78;100436.88;5054592;28;20320;-81
2022/04/05 05:50:18;;;;;;;;;;;;;;;20.87;39.08;100441.56;5054650;28;20356;-82
2022/04/05 05:52:44;;;;;;;;;;;;;;;20.86;39.23;100439.94;5054688;28;20295;-82
2022/04/05 05:55:10;;;;;;;;;;;;;;;20.86;39.19;100441.88;5037416;28;20399;-82
2022/04/05 05:57:36;;;;;;;;;;;;;;;20.85;38.96;100441.06;5054793;28;19944;-81
2022/04/05 06:00:03;;;;;;;;;;;;;;;20.86;39.18;100444.63;5054860;28;20341;-82
2022/04/05 06:02:28;;;;;;;;;;;;;;;20.86;39.17;100448.16;5054167;28;20343;-81
2022/04/05 06:04:53;;;;;;;;;;;;;;;20.85;39.11;100446.56;5054165;28;19987;-82
2022/04/05 06:07:19;;;;;;;;;;;;;;;20.85;39.11;100446.56;5069731;28;19921;-82
2022/04/05 06:09:44;;;;;;;;;;;;;;;20.83;39.16;100442.50;5069594;28;19959;-82
2022/04/05 06:12:09;;;;;;;;;;;;;;;20.84;39.40;100447.69;5054085;28;19999;-82
2022/04/05 06:14:34;;;;;;;;;;;;;;;20.85;39.28;100454.00;5036054;28;20011;-81
2022/04/05 06:17:00;;;;;;;;;;;;;;;20.83;39.18;100457.03;5052972;28;20043;-80
2022/04/05 06:19:25;;;;;;;;;;;;;;;20.83;39.13;100450.75;5054112;28;19975;-80
2022/04/05 06:21:50;;;;;;;;;;;;;;;20.84;39.31;100455.94;5069669;28;20365;-82
2022/04/05 06:24:16;;;;;;;;;;;;;;;20.84;39.07;100452.34;5054335;28;19924;-83
2022/04/05 06:26:41;;;;;;;;;;;;;;;20.84;39.37;100455.94;5068579;28;19928;-83
2022/04/05 06:29:07;;;;;;;;;;;;;;;20.83;39.29;100457.03;5069428;28;19928;-81
2022/04/05 06:31:32;;;;;;;;;;;;;;;20.85;39.33;100460.28;5053394;28;20432;-81
2022/04/05 06:34:01;;;;;;;;;;;;;;;20.86;39.18;100458.34;5069083;28;20331;-80
2022/04/05 06:36:27;;;;;;;;;;;;;;;20.86;39.33;100459.16;5053497;28;19921;-78
2022/04/05 06:38:52;;;;;;;;;;;;;;;20.88;39.40;100461.59;5069240;28;19971;-81
2022/04/05 06:41:17;;;;;;;;;;;;;;;20.89;39.29;100465.94;5053388;28;20031;-82
2022/04/05 06:43:42;;;;;;;;;;;;;;;20.90;39.32;100467.56;5053852;28;20300;-81
2022/04/05 06:46:08;;;;;;;;;;;;;;;20.91;39.18;100466.44;5053413;28;19925;-82
2022/04/05 06:48:33;;;;;;;;;;;;;;;20.92;39.20;100466.13;5053045;28;20007;-82
2022/04/05 06:50:58;;;;;;;;;;;;;;;20.94;39.33;100471.28;5068413;28;19928;-80
2022/04/05 06:53:23;;;;;;;;;;;;;;;20.95;39.09;100476.47;5052410;28;20392;-82
2022/04/05 06:55:49;;;;;;;;;;;;;;;20.96;39.32;100474.50;5051327;28;19924;-83
2022/04/05 06:58:14;;;;;;;;;;;;;;;20.96;39.44;100475.34;5052671;28;19917;-85
2022/04/05 07:00:39;;;;;;;;;;;;;;;20.97;39.44;100478.91;5050932;28;19987;-83
2022/04/05 07:03:05;;;;;;;;;;;;;;;20.99;39.34;100478.56;5051927;28;19921;-84
2022/04/05 07:05:30;;;;;;;;;;;;;;;21.01;39.43;100476.31;5052121;28;20391;-86
2022/04/05 07:07:56;;;;;;;;;;;;;;;21.01;39.05;100482.59;5051595;28;19921;-87
2022/04/05 07:10:21;;;;;;;;;;;;;;;21.01;39.12;100485.34;5051852;28;19997;-89
2022/04/05 07:12:47;;;;;;;;;;;;;;;21.03;39.68;100496.84;5035314;28;19944;-87
2022/04/05 07:15:12;;;;;;;;;;;;;;;21.03;39.24;100493.28;5034904;28;19971;-89
2022/04/05 07:17:38;;;;;;;;;;;;;;;21.04;39.50;100487.47;5068555;28;19921;-84
2022/04/05 07:20:07;;;;;;;;;;;;;;;21.04;39.25;100492.97;5034570;28;19917;-84
2022/04/05 07:22:32;;;;;;;;;;;;;;;21.08;39.16;100487.63;5053093;28;20020;-86
2022/04/05 07:24:57;;;;;;;;;;;;;;;21.11;39.29;100485.06;5034063;28;20408;-85
2022/04/05 07:27:23;;;;;;;;;;;;;;;21.14;39.56;100487.19;5052244;28;19937;-84
2022/04/05 07:29:48;;;;;;;;;;;;;;;21.20;39.33;100484.28;5051378;28;19921;-83
2022/04/05 07:32:13;;;;;;;;;;;;;;;21.24;39.40;100485.25;5034845;28;19921;-84
2022/04/05 07:34:39;;;;;;;;;;;;;;;21.28;39.55;100477.97;5051550;28;20239;-84
2022/04/05 07:37:04;;;;;;;;;;;;;;;21.32;39.18;100484.47;5050922;28;20008;-82
2022/04/05 07:39:29;;;;;;;;;;;;;;;21.35;39.29;100479.13;5067540;28;19928;-85
2022/04/05 07:41:54;;;;;;;;;;;;;;;21.41;39.31;100479.81;5051197;28;19925;-83
2022/04/05 07:44:20;;;;;;;;;;;;;;;21.46;39.28;100484.34;5033858;28;19983;-82
2022/04/05 07:46:46;;;;;;;;;;;;;;;21.49;39.52;100473.50;5004719;28;1804646;-84
2022/04/05 07:49:12;;;;;;;;;;;;;;;21.54;39.21;100486.28;5053435;28;19971;-84
2022/04/05 07:51:37;;;;;;;;;;;;;;;21.57;39.42;100485.63;5068634;28;20308;-84
2022/04/05 07:54:04;;;;;;;;;;;;;;;21.60;39.47;100485.81;5052852;28;19920;-81
2022/04/05 07:56:29;;;;;;;;;;;;;;;21.64;39.39;100479.66;5052514;28;19924;-84
2022/04/05 07:58:54;;;;;;;;;;;;;;;21.67;39.38;100488.06;5052837;28;19921;-83
2022/04/05 08:01:20;;;;;;;;;;;;;;;21.70;39.36;100484.66;5051659;28;20376;-82
2022/04/05 08:03:45;;;;;;;;;;;;;;;21.73;39.65;100485.97;5035740;28;20285;-82
2022/04/05 08:06:10;;;;;;;;;;;;;;;21.76;39.33;100485.31;5053266;28;20047;-83
2022/04/05 08:08:36;;;;;;;;;;;;;;;21.80;39.56;100483.53;5072135;28;19933;-83
2022/04/05 08:11:01;;;;;;;;;;;;;;;21.82;39.55;100486.75;5071859;28;19920;-84
2022/04/05 08:13:26;;;;;;;;;;;;;;;21.86;39.43;100489.66;5038327;28;19924;-83
2022/04/05 08:15:52;;;;;;;;;;;;;;;21.88;39.20;100490.97;5056695;28;19920;-82
2022/04/05 08:18:19;;;;;;;;;;;;;;;21.88;39.35;100488.22;5056620;28;19920;-81
2022/04/05 08:20:44;;;;;;;;;;;;;;;21.88;39.51;100496.47;5055951;28;20335;-82
2022/04/05 08:23:09;;;;;;;;;;;;;;;21.87;39.21;100485.78;5056192;28;19927;-83
2022/04/05 08:25:35;;;;;;;;;;;;;;;21.86;39.48;100495.97;5055898;28;19966;-83
2022/04/05 08:28:01;;;;;;;;;;;;;;;21.86;39.63;100493.22;5055983;28;19928;-83
2022/04/05 08:30:26;;;;;;;;;;;;;;;21.84;39.50;100495.47;5055811;28;19974;-83
2022/04/05 08:32:51;;;;;;;;;;;;;;;21.83;39.45;100497.44;5037960;28;19917;-83
2022/04/05 08:35:18;;;;;;;;;;;;;;;21.84;39.31;100509.22;5037895;28;20320;-83
2022/04/05 08:37:44;;;;;;;;;;;;;;;21.87;39.58;100500.31;5055460;28;20274;-82
2022/04/05 08:40:10;;;;;;;;;;;;;;;21.89;39.49;100500.81;5038007;28;19923;-84
2022/04/05 08:42:37;;;;;;;;;;;;;;;21.92;39.28;100500.16;5055460;28;19962;-78
2022/04/05 08:45:04;;;;;;;;;;;;;;;21.95;39.26;100505.03;5055560;28;20387;-80
2022/04/05 08:47:29;;;;;;;;;;;;;;;21.97;39.22;100508.28;5037152;28;19924;-82
2022/04/05 08:49:55;;;;;;;;;;;;;;;22.01;39.40;100508.41;5071361;28;20015;-82
2022/04/05 08:52:20;;;;;;;;;;;;;;;22.03;39.40;100511.66;5055631;28;19921;-80
2022/04/05 08:54:45;;;;;;;;;;;;;;;22.06;39.52;100507.44;5037919;28;19971;-83
2022/04/05 08:57:10;;;;;;;;;;;;;;;22.09;39.35;100502.09;5055390;28;19925;-81
2022/04/05 08:59:36;;;;;;;;;;;;;;;22.10;39.66;100509.22;5055676;28;19920;-86
2022/04/05 09:02:01;;;;;;;;;;;;;;;22.10;39.35;100511.97;5055513;28;19924;-84
2022/04/05 09:04:31;;;;;;;;;;;;;;;22.11;39.25;100515.53;5037254;28;20347;-83
2022/04/05 09:06:56;;;;;;;;;;;;;;;22.09;39.27;100512.28;5071013;28;20437;-83
2022/04/05 09:09:28;;;;;;;;;;;;;;;22.12;39.42;100514.38;5055137;28;20434;-80
2022/04/05 09:11:53;;;;;;;;;;;;;;;22.14;39.48;100518.44;5069415;28;19931;-84
2022/04/05 09:14:23;;;;;;;;;;;;;;;22.16;39.53;100516.16;5055507;28;20019;-80
2022/04/05 09:17:02;;;;;;;;;;;;;;;22.18;39.18;100511.16;5037265;28;19917;-79
2022/04/05 09:19:35;;;;;;;;;;;;;;;22.20;39.52;100511.66;5036839;28;19933;-79
2022/04/05 09:22:03;;;;;;;;;;;;;;;22.23;39.16;100521.22;5055829;28;19966;-80
2022/04/05 09:24:43;;;;;;;;;;;;;;;22.24;39.29;100512.59;5069932;28;19974;-78
2022/04/05 09:27:09;;;;;;;;;;;;;;;22.27;39.49;100513.91;5070035;28;19920;-79
2022/04/05 09:29:41;;;;;;;;;;;;;;;22.28;39.22;100529.28;5055361;28;19924;-80
2022/04/05 09:32:06;;;;;;;;;;;;;;;22.31;39.38;100533.31;5055288;28;19920;-82
2022/04/05 09:34:32;;;;;;;;;;;;;;;22.32;39.32;100527.47;5054531;28;19917;-82
2022/04/05 09:37:06;;;;;;;;;;;;;;;22.34;39.31;100524.41;5070447;28;19944;-80
2022/04/05 09:39:31;;;;;;;;;;;;;;;22.34;39.19;100527.97;5037612;28;19923;-85
2022/04/05 09:42:03;;;;;;;;;;;;;;;22.36;39.25;100527.66;5054538;28;20283;-83
2022/04/05 09:44:32;;;;;;;;;;;;;;;22.38;39.10;100528.13;5036491;28;20316;-83
2022/04/05 09:47:05;;;;;;;;;;;;;;;22.40;39.38;100534.09;5036836;28;19917;-81
2022/04/05 09:49:31;;;;;;;;;;;;;;;22.41;39.53;100535.72;5054594;28;20279;-82
2022/04/05 09:51:56;;;;;;;;;;;;;;;22.42;39.32;100527.13;5054864;28;19959;-83
2022/04/05 09:54:27;;;;;;;;;;;;;;;22.43;39.36;100538.97;5054341;28;19952;-83
2022/04/05 09:56:58;;;;;;;;;;;;;;;22.43;39.32;100537.03;5036734;28;19935;-82
2022/04/05 09:59:23;;;;;;;;;;;;;;;22.45;39.52;100529.25;5055362;28;19927;-81
2022/04/05 10:01:51;;;;;;;;;;;;;;;22.47;39.37;100534.41;5054294;28;19917;-80
2022/04/05 10:04:17;;;;;;;;;;;;;;;22.49;39.37;100532.16;5054363;28;19932;-81
2022/04/05 10:06:46;;;;;;;;;;;;;;;22.51;39.25;100532.63;5053910;28;19967;-81
2022/04/05 10:09:12;;;;;;;;;;;;;;;22.52;39.12;100534.22;5053997;28;19924;-81
2022/04/05 10:11:38;;;;;;;;;;;;;;;22.52;39.17;100531.47;5036431;28;20245;-81
2022/04/05 10:14:04;;;;;;;;;;;;;;;22.52;39.38;100530.69;5054522;28;20009;-82
2022/04/05 10:16:31;;;;;;;;;;;;;;;22.50;39.20;100531.00;5053944;28;19917;-80
2022/04/05 10:18:57;;;;;;;;;;;;;;;22.47;39.40;100537.16;5036512;28;20000;-80
2022/04/05 10:21:24;;;;;;;;;;;;;;;22.44;39.45;100532.31;5053908;28;19963;-80
2022/04/05 10:23:50;;;;;;;;;;;;;;;22.43;39.39;100534.28;5035930;28;20007;-80
2022/04/05 10:26:18;;;;;;;;;;;;;;;22.40;39.50;100532.19;5053396;28;19968;-80
2022/04/05 10:28:45;;;;;;;;;;;;;;;22.38;39.39;100539.16;5053604;28;20406;-82
2022/04/05 10:31:29;;;;;;;;;;;;;;;22.36;39.48;100533.97;5035459;28;19924;-80
2022/04/05 10:34:04;;;;;;;;;;;;;;;22.34;39.52;100538.97;5054173;28;19924;-82
2022/04/05 10:36:29;;;;;;;;;;;;;;;22.32;39.29;100532.19;5054067;28;19917;-81
2022/04/05 10:39:11;;;;;;;;;;;;;;;22.30;39.32;100543.53;5053849;28;19928;-81
2022/04/05 10:41:36;;;;;;;;;;;;;;;22.28;39.40;100537.53;5053901;28;19924;-81
2022/04/05 10:44:16;;;;;;;;;;;;;;;22.27;39.29;100543.34;5035333;28;19970;-79
2022/04/05 10:46:42;;;;;;;;;;;;;;;22.25;39.40;100544.50;5053764;28;19967;-80
2022/04/05 10:49:08;;;;;;;;;;;;;;;22.24;39.37;100536.56;5053938;28;19927;-80
2022/04/05 10:51:52;;;;;;;;;;;;;;;22.22;39.29;100544.34;5035479;28;20444;-81
2022/04/05 10:54:20;;;;;;;;;;;;;;;22.21;39.34;100528.97;5053246;28;19917;-81
2022/04/05 10:57:04;;;;;;;;;;;;;;;22.20;39.49;100541.09;5068670;28;19967;-83
2022/04/05 10:59:45;;;;;;;;;;;;;;;22.19;39.56;100537.53;5036009;28;19912;-80
2022/04/05 11:02:29;;;;;;;;;;;;;;;22.19;39.35;100542.22;5053462;28;20010;-83
2022/04/05 11:05:27;;;;;;;;;;;;;;;22.18;39.58;100533.16;5053392;28;19913;-80
2022/04/05 11:07:59;;;;;;;;;;;;;;;22.17;39.54;100537.03;5041182;28;19920;-80
2022/04/05 11:10:30;;;;;;;;;;;;;;;22.17;39.52;100531.53;5053178;28;19917;-81
2022/04/05 11:13:06;;;;;;;;;;;;;;;22.17;39.44;100533.47;5053597;28;19951;-83
2022/04/05 11:15:46;;;;;;;;;;;;;;;22.16;39.47;100543.66;5053348;28;19913;-85
2022/04/05 11:18:16;;;;;;;;;;;;;;;22.17;39.57;100530.72;5035362;28;19913;-85
2022/04/05 11:20:42;;;;;;;;;;;;;;;22.18;39.23;100532.34;5069165;28;19928;-83
2022/04/05 11:23:07;;;;;;;;;;;;;;;22.18;39.59;100532.34;5053212;28;19917;-85
2022/04/05 11:25:33;;;;;;;;;;;;;;;22.18;39.22;100526.84;5053622;28;19921;-84
2022/04/05 11:28:14;;;;;;;;;;;;;;;22.19;39.24;100528.44;5035006;28;20365;-83
2022/04/05 11:30:40;;;;;;;;;;;;;;;22.19;39.42;100529.28;5053139;28;19924;-82
2022/04/05 11:33:17;;;;;;;;;;;;;;;22.19;39.43;100523.78;5035964;28;19917;-81
2022/04/05 11:35:44;;;;;;;;;;;;;;;22.19;39.41;100531.19;5035394;28;19913;-86
2022/04/05 11:38:28;;;;;;;;;;;;;;;22.20;39.13;100527.34;5053031;28;20015;-77
2022/04/05 11:40:57;;;;;;;;;;;;;;;22.19;39.25;100528.44;5052800;28;20273;-78
2022/04/05 11:43:27;;;;;;;;;;;;;;;22.20;39.09;100527.34;5056091;28;19913;-80
2022/04/05 11:46:13;;;;;;;;;;;;;;;22.20;39.63;100522.66;5056825;28;19921;-82
2022/04/05 11:48:40;;;;;;;;;;;;;;;22.21;39.46;100523.47;5045605;28;19952;-82
2022/04/05 11:51:07;;;;;;;;;;;;;;;22.21;39.49;100526.22;5056894;28;20410;-82
2022/04/05 11:53:32;;;;;;;;;;;;;;;22.21;39.20;100526.22;5057077;28;19971;-81
2022/04/05 11:56:07;;;;;;;;;;;;;;;22.21;39.21;100528.97;5056438;28;19925;-81
2022/04/05 11:58:34;;;;;;;;;;;;;;;22.21;39.56;100524.28;5056462;28;19917;-80
2022/04/05 12:01:00;;;;;;;;;;;;;;;22.21;39.16;100524.28;5056342;28;20364;-80
2022/04/05 12:03:26;;;;;;;;;;;;;;;22.23;39.21;100521.22;5039229;28;19975;-80
2022/04/05 12:05:52;;;;;;;;;;;;;;;22.22;39.25;100516.81;5056104;28;19921;-80
2022/04/05 12:08:17;;;;;;;;;;;;;;;22.22;39.31;100516.81;5072001;28;20284;-80
2022/04/05 12:10:43;;;;;;;;;;;;;;;22.22;39.43;100511.31;5056101;28;19917;-82
2022/04/05 12:13:09;;;;;;;;;;;;;;;22.22;39.19;100511.31;5038250;28;19920;-80
2022/04/05 12:15:35;;;;;;;;;;;;;;;22.22;39.48;100514.88;5055997;28;20365;-80
2022/04/05 12:18:19;;;;;;;;;;;;;;;22.22;39.42;100519.56;5056472;28;19963;-80
2022/04/05 12:21:04;;;;;;;;;;;;;;;22.23;39.16;100513.75;5055921;28;19924;-81
2022/04/05 12:23:31;;;;;;;;;;;;;;;22.23;39.50;100511.00;5055966;28;19916;-80
2022/04/05 12:26:07;;;;;;;;;;;;;;;22.26;39.10;100517.78;5037872;28;19924;-80
2022/04/05 12:28:33;;;;;;;;;;;;;;;22.25;39.25;100517.00;5038004;28;20289;-81
2022/04/05 12:31:02;;;;;;;;;;;;;;;22.27;39.19;100518.59;5055794;28;20361;-80
2022/04/05 12:33:28;;;;;;;;;;;;;;;22.28;39.52;100525.75;5055798;28;19921;-81